Time;durP1;ratioP1;P1;durP2;ratioP2;P2;SDS_P1;SDS_P2;PMS_P1;PMS_P2;Temp;Humidity;BMP_temperature;BMP_pressure;BME280_temperature;BME280_humidity;BME280_pressure;Samples;Min_cycle;Max_cycle;Signal;HPM_P1;HPM_P2
2023/04/25 00:02:05;;;;;;;5.50;2.60;;;9.00;99.90;;;;;;5007278;28;20037;-76
2023/04/25 00:04:32;;;;;;;3.92;2.40;;;9.00;99.90;;;;;;4994049;28;20514;-76
2023/04/25 00:07:07;;;;;;;6.25;2.83;;;9.00;99.90;;;;;;5006770;28;20026;-76
2023/04/25 00:09:33;;;;;;;8.35;2.83;;;9.00;99.90;;;;;;4991835;28;20075;-76
2023/04/25 00:11:59;;;;;;;5.03;2.60;;;9.00;99.90;;;;;;5006594;28;20035;-76
2023/04/25 00:14:33;;;;;;;4.97;2.67;;;9.00;99.90;;;;;;4983674;28;20038;-76
2023/04/25 00:16:59;;;;;;;5.40;2.70;;;9.00;99.90;;;;;;4981701;28;20026;-76
2023/04/25 00:19:32;;;;;;;5.65;3.05;;;9.00;99.90;;;;;;5003656;28;20030;-76
2023/04/25 00:22:07;;;;;;;10.10;2.90;;;9.00;99.90;;;;;;4984426;28;20057;-76
2023/04/25 00:24:39;;;;;;;6.85;2.58;;;9.00;99.90;;;;;;4991185;28;20033;-76
2023/04/25 00:27:05;;;;;;;5.05;2.58;;;9.10;99.90;;;;;;5003390;28;20071;-76
2023/04/25 00:29:39;;;;;;;6.38;2.40;;;9.10;99.90;;;;;;4988983;28;20045;-76
2023/04/25 00:32:08;;;;;;;6.53;2.90;;;9.10;99.90;;;;;;4986230;28;20112;-76
2023/04/25 00:34:34;;;;;;;3.50;2.33;;;9.20;99.90;;;;;;4988439;28;20479;-76
2023/04/25 00:37:01;;;;;;;4.80;2.40;;;9.10;99.90;;;;;;4987308;28;20079;-76
2023/04/25 00:39:27;;;;;;;5.22;2.45;;;9.10;99.90;;;;;;4986376;28;20029;-76
2023/04/25 00:41:54;;;;;;;5.38;2.75;;;9.20;99.90;;;;;;4972422;28;20034;-76
2023/04/25 00:44:20;;;;;;;4.50;2.20;;;9.20;99.90;;;;;;4983069;28;20161;-76
2023/04/25 00:46:49;;;;;;;3.28;2.45;;;9.20;99.90;;;;;;4990278;28;20023;-76
2023/04/25 00:49:18;;;;;;;8.55;3.00;;;9.20;99.90;;;;;;5004195;28;20041;-76
2023/04/25 00:51:44;;;;;;;5.22;2.40;;;9.20;99.90;;;;;;4980028;28;20111;-76
2023/04/25 00:54:14;;;;;;;6.30;2.63;;;9.10;99.90;;;;;;4985930;28;20492;-76
2023/04/25 00:56:45;;;;;;;5.07;2.83;;;9.10;99.90;;;;;;4989363;28;20610;-76
2023/04/25 00:59:20;;;;;;;6.07;2.60;;;9.20;99.90;;;;;;4988400;28;20129;-76
2023/04/25 01:01:46;;;;;;;5.18;2.95;;;9.10;99.90;;;;;;4987735;28;20082;-76
2023/04/25 01:04:18;;;;;;;7.07;2.72;;;9.10;99.90;;;;;;4988205;28;20033;-76
2023/04/25 01:06:44;;;;;;;5.13;2.55;;;9.10;99.90;;;;;;4989556;28;20026;-76
2023/04/25 01:09:10;;;;;;;5.50;2.50;;;9.20;99.90;;;;;;4988740;28;20026;-76
2023/04/25 01:11:36;;;;;;;7.18;2.35;;;9.10;99.90;;;;;;4985173;28;20022;-76
2023/04/25 01:14:02;;;;;;;5.53;2.97;;;9.10;99.90;;;;;;4988999;28;20488;-76
2023/04/25 01:16:27;;;;;;;4.97;2.20;;;9.10;99.90;;;;;;4986461;28;20094;-76
2023/04/25 01:18:54;;;;;;;6.40;2.50;;;9.20;99.90;;;;;;4985878;28;20026;-76
2023/04/25 01:21:20;;;;;;;5.10;2.92;;;9.10;99.90;;;;;;4986733;28;20043;-76
2023/04/25 01:23:49;;;;;;;5.50;2.60;;;9.10;99.90;;;;;;4983946;28;20492;-76
2023/04/25 01:26:15;;;;;;;6.43;2.50;;;9.10;99.90;;;;;;4989949;28;20023;-76
2023/04/25 01:28:48;;;;;;;8.32;2.85;;;9.10;99.90;;;;;;4985559;28;20027;-76
2023/04/25 01:31:23;;;;;;;6.30;2.83;;;9.20;99.90;;;;;;4987434;28;20025;-76
2023/04/25 01:33:48;;;;;;;5.28;2.50;;;9.20;99.90;;;;;;4988289;28;20112;-76
2023/04/25 01:36:14;;;;;;;4.80;2.83;;;9.20;99.90;;;;;;4989665;28;20085;-75
2023/04/25 01:38:43;;;;;;;7.13;3.47;;;9.10;99.90;;;;;;5005020;28;20160;-75
2023/04/25 01:41:09;;;;;;;6.00;2.80;;;9.10;99.90;;;;;;4989003;28;20165;-76
2023/04/25 01:43:35;;;;;;;6.72;2.30;;;9.10;99.90;;;;;;4988882;28;20057;-76
2023/04/25 01:46:04;;;;;;;4.95;2.63;;;9.10;99.90;;;;;;4986132;28;20248;-76
2023/04/25 01:48:32;;;;;;;6.35;2.55;;;9.10;99.90;;;;;;4990291;28;20522;-76
2023/04/25 01:50:58;;;;;;;6.50;2.60;;;9.10;99.90;;;;;;4990995;28;20387;-76
2023/04/25 01:53:27;;;;;;;3.92;2.08;;;9.10;99.90;;;;;;4987959;28;20028;-76
2023/04/25 01:56:01;;;;;;;3.47;2.15;;;9.10;99.90;;;;;;4992512;28;20029;-75
2023/04/25 01:58:27;;;;;;;5.47;2.28;;;9.10;99.90;;;;;;4989860;28;20114;-74
2023/04/25 02:00:52;;;;;;;5.57;2.10;;;9.10;99.90;;;;;;5000465;28;20034;-75
2023/04/25 02:03:21;;;;;;;5.30;2.30;;;9.10;99.90;;;;;;4991662;28;20030;-75
2023/04/25 02:05:53;;;;;;;2.95;1.77;;;9.10;99.90;;;;;;5003287;28;20066;-75
2023/04/25 02:08:18;;;;;;;4.45;2.08;;;9.20;99.90;;;;;;4989693;28;20037;-75
2023/04/25 02:10:47;;;;;;;5.45;2.30;;;9.20;99.90;;;;;;5006092;28;20026;-74
2023/04/25 02:13:13;;;;;;;4.18;1.92;;;9.10;99.90;;;;;;4987833;28;20030;-75
2023/04/25 02:15:44;;;;;;;3.85;2.30;;;9.10;99.90;;;;;;5005363;28;20026;-75
2023/04/25 02:18:11;;;;;;;7.22;1.98;;;9.10;99.90;;;;;;4988413;28;20042;-75
2023/04/25 02:20:43;;;;;;;4.45;2.08;;;9.10;99.90;;;;;;4988982;28;20030;-75
2023/04/25 02:23:09;;;;;;;5.87;2.37;;;9.10;99.90;;;;;;4987192;28;20022;-73
2023/04/25 02:25:38;;;;;;;3.35;2.20;;;9.10;99.90;;;;;;4991108;28;20415;-75
2023/04/25 02:28:03;;;;;;;4.95;1.80;;;9.10;99.90;;;;;;5003518;28;20072;-75
2023/04/25 02:30:32;;;;;;;2.17;1.67;;;9.10;99.90;;;;;;4989470;28;20010;-75
2023/04/25 02:32:58;;;;;;;6.55;1.92;;;9.00;99.90;;;;;;4988552;28;20057;-76
2023/04/25 02:35:32;;;;;;;5.07;2.08;;;9.00;99.90;;;;;;4983863;28;20058;-75
2023/04/25 02:38:04;;;;;;;4.55;1.95;;;9.00;99.90;;;;;;4987883;28;20037;-75
2023/04/25 02:40:30;;;;;;;8.48;2.15;;;9.10;99.90;;;;;;4987044;28;20519;-74
2023/04/25 02:42:55;;;;;;;3.83;2.35;;;9.00;99.90;;;;;;4982577;28;20042;-76
2023/04/25 02:45:21;;;;;;;7.13;2.10;;;9.00;99.90;;;;;;4986499;28;20038;-75
2023/04/25 02:47:47;;;;;;;4.55;2.22;;;9.00;99.90;;;;;;4985937;28;20030;-75
2023/04/25 02:50:12;;;;;;;5.00;2.28;;;9.00;99.90;;;;;;4984714;28;20010;-75
2023/04/25 02:52:38;;;;;;;3.05;1.88;;;9.00;99.90;;;;;;4985630;28;20335;-76
2023/04/25 02:55:06;;;;;;;5.10;2.15;;;9.00;99.90;;;;;;4989599;28;20182;-76
2023/04/25 02:57:32;;;;;;;4.65;2.28;;;9.00;99.90;;;;;;4986977;28;20045;-76
2023/04/25 02:59:58;;;;;;;5.03;2.00;;;8.90;99.90;;;;;;4990457;28;20030;-75
2023/04/25 03:02:23;;;;;;;4.45;2.08;;;8.80;99.90;;;;;;4989056;28;20034;-75
2023/04/25 03:04:49;;;;;;;4.68;2.17;;;8.80;99.90;;;;;;4994755;28;20032;-75
2023/04/25 03:07:14;;;;;;;4.43;1.90;;;8.80;99.90;;;;;;4989650;28;20034;-76
2023/04/25 03:09:43;;;;;;;8.60;2.28;;;8.80;99.90;;;;;;4986386;28;20019;-75
2023/04/25 03:12:09;;;;;;;3.75;2.22;;;8.70;99.90;;;;;;5008004;28;20080;-76
2023/04/25 03:14:34;;;;;;;5.22;2.35;;;8.70;99.90;;;;;;4989331;28;20031;-75
2023/04/25 03:17:00;;;;;;;5.30;2.33;;;8.70;99.90;;;;;;4988397;28;20035;-75
2023/04/25 03:19:25;;;;;;;5.78;2.55;;;8.70;99.90;;;;;;4989350;28;20034;-75
2023/04/25 03:21:51;;;;;;;6.43;2.03;;;8.60;99.90;;;;;;4988964;28;20514;-75
2023/04/25 03:24:17;;;;;;;3.40;1.80;;;8.60;99.90;;;;;;4991205;28;20022;-75
2023/04/25 03:26:42;;;;;;;5.15;2.05;;;8.60;99.90;;;;;;4989329;28;20093;-75
2023/04/25 03:29:09;;;;;;;5.68;2.30;;;8.50;99.90;;;;;;4989369;28;20495;-75
2023/04/25 03:31:34;;;;;;;5.28;2.20;;;8.50;99.90;;;;;;4988066;28;20033;-74
2023/04/25 03:34:00;;;;;;;5.13;2.35;;;8.50;99.90;;;;;;5005371;28;20113;-76
2023/04/25 03:36:28;;;;;;;5.32;2.30;;;8.50;99.90;;;;;;4989802;28;20732;-76
2023/04/25 03:38:57;;;;;;;5.50;2.42;;;8.50;99.90;;;;;;4990277;28;20258;-76
2023/04/25 03:41:22;;;;;;;7.20;2.22;;;8.50;99.90;;;;;;4991655;28;20026;-77
2023/04/25 03:43:48;;;;;;;5.30;1.92;;;8.60;99.90;;;;;;5002535;28;20034;-76
2023/04/25 03:46:14;;;;;;;3.90;1.60;;;8.60;99.90;;;;;;4988381;28;20285;-77
2023/04/25 03:48:42;;;;;;;4.63;2.20;;;8.60;99.90;;;;;;4989056;28;20030;-76
2023/04/25 03:51:14;;;;;;;5.53;2.35;;;8.50;99.90;;;;;;4990427;28;20180;-76
2023/04/25 03:53:40;;;;;;;5.13;1.90;;;8.60;99.90;;;;;;4985705;28;20031;-76
2023/04/25 03:56:06;;;;;;;4.65;2.25;;;8.50;99.90;;;;;;4983875;28;20038;-76
2023/04/25 03:58:31;;;;;;;7.22;2.47;;;8.50;99.90;;;;;;4991029;28;20040;-77
2023/04/25 04:00:57;;;;;;;3.58;1.75;;;8.50;99.90;;;;;;4992687;28;20026;-77
2023/04/25 04:03:23;;;;;;;7.15;2.25;;;8.50;99.90;;;;;;4991609;28;20034;-77
2023/04/25 04:05:50;;;;;;;6.00;2.20;;;8.50;99.90;;;;;;4993016;28;20026;-77
2023/04/25 04:08:15;;;;;;;5.82;2.30;;;8.50;99.90;;;;;;4990093;28;20479;-78
2023/04/25 04:10:41;;;;;;;6.50;2.30;;;8.50;99.90;;;;;;4992689;28;20176;-77
2023/04/25 04:13:07;;;;;;;5.85;2.42;;;8.50;99.90;;;;;;4992629;28;20042;-77
2023/04/25 04:15:32;;;;;;;5.32;2.20;;;8.50;99.90;;;;;;4990121;28;20109;-77
2023/04/25 04:18:02;;;;;;;4.40;1.60;;;8.50;99.90;;;;;;4987933;28;20030;-77
2023/04/25 04:20:31;;;;;;;4.90;2.13;;;8.50;99.90;;;;;;5007271;28;20033;-77
2023/04/25 04:22:56;;;;;;;5.60;2.50;;;8.50;99.90;;;;;;4992280;28;20042;-78
2023/04/25 04:25:22;;;;;;;6.70;2.67;;;8.50;99.90;;;;;;4991622;28;20035;-78
2023/04/25 04:27:47;;;;;;;9.60;2.85;;;8.50;99.90;;;;;;4991902;28;20324;-77
2023/04/25 04:30:16;;;;;;;4.28;2.40;;;8.50;99.90;;;;;;5009372;28;20129;-78
2023/04/25 04:32:41;;;;;;;6.25;2.50;;;8.50;99.90;;;;;;4991183;28;20039;-77
2023/04/25 04:35:08;;;;;;;5.57;2.72;;;8.50;99.90;;;;;;4984894;28;20035;-77
2023/04/25 04:37:34;;;;;;;4.18;2.10;;;8.50;99.90;;;;;;4982477;28;20483;-76
2023/04/25 04:40:04;;;;;;;9.70;2.30;;;8.50;99.90;;;;;;4982279;28;20030;-76
2023/04/25 04:42:30;;;;;;;4.13;2.20;;;8.50;99.90;;;;;;4989386;28;20026;-76
2023/04/25 04:45:03;;;;;;;6.00;2.10;;;8.50;99.90;;;;;;4985865;28;20384;-76
2023/04/25 04:47:33;;;;;;;3.42;1.98;;;8.50;99.90;;;;;;4989602;28;20353;-76
2023/04/25 04:49:59;;;;;;;4.72;2.50;;;8.50;99.90;;;;;;4987166;28;20053;-70
2023/04/25 04:52:25;;;;;;;5.40;2.15;;;8.50;99.90;;;;;;4988113;28;20034;-70
2023/04/25 04:54:50;;;;;;;5.18;1.98;;;8.50;99.90;;;;;;4991912;28;20330;-70
2023/04/25 04:57:16;;;;;;;4.43;2.03;;;8.60;99.90;;;;;;4985129;28;20117;-69
2023/04/25 04:59:42;;;;;;;7.03;2.85;;;8.60;99.90;;;;;;4990250;28;20038;-69
2023/04/25 05:02:08;;;;;;;4.82;1.85;;;8.60;99.90;;;;;;4990410;28;20088;-69
2023/04/25 05:04:36;;;;;;;5.65;2.08;;;8.60;99.90;;;;;;4988308;28;20132;-70
2023/04/25 05:07:02;;;;;;;3.25;1.75;;;8.60;99.90;;;;;;5008183;28;20074;-72
2023/04/25 05:09:27;;;;;;;4.50;2.03;;;8.70;99.90;;;;;;4992892;28;20057;-72
2023/04/25 05:11:53;;;;;;;9.88;2.40;;;8.70;99.90;;;;;;4993059;28;20411;-73
2023/04/25 05:14:19;;;;;;;6.75;2.10;;;8.70;99.90;;;;;;4992689;28;20373;-72
2023/04/25 05:16:47;;;;;;;10.68;2.08;;;8.80;99.90;;;;;;4992445;28;20030;-72
2023/04/25 05:19:13;;;;;;;3.58;2.22;;;8.80;99.90;;;;;;5007628;28;20113;-73
2023/04/25 05:21:39;;;;;;;3.95;2.30;;;8.80;99.90;;;;;;4992677;28;20119;-73
2023/04/25 05:24:05;;;;;;;8.15;2.40;;;8.90;99.90;;;;;;4992724;28;20026;-73
2023/04/25 05:26:30;;;;;;;3.30;2.00;;;8.90;99.90;;;;;;4992973;28;20489;-73
2023/04/25 05:28:59;;;;;;;5.55;2.10;;;8.90;99.90;;;;;;4991351;28;20403;-73
2023/04/25 05:31:25;;;;;;;7.72;2.22;;;8.90;99.90;;;;;;4992724;28;20177;-72
2023/04/25 05:33:52;;;;;;;6.50;2.33;;;8.90;99.90;;;;;;4992397;28;20030;-72
2023/04/25 05:36:19;;;;;;;5.25;2.03;;;8.90;99.90;;;;;;4992616;28;20542;-72
2023/04/25 05:38:45;;;;;;;4.13;1.80;;;8.90;99.90;;;;;;4992376;28;20492;-72
2023/04/25 05:41:10;;;;;;;4.38;2.10;;;8.90;99.90;;;;;;4992634;28;20114;-72
2023/04/25 05:43:44;;;;;;;4.65;1.92;;;8.90;99.90;;;;;;4992425;28;20375;-72
2023/04/25 05:46:10;;;;;;;4.30;1.55;;;8.90;99.90;;;;;;4992212;28;20022;-72
2023/04/25 05:48:36;;;;;;;7.47;2.10;;;8.90;99.90;;;;;;4992263;28;20022;-72
2023/04/25 05:51:02;;;;;;;4.57;1.85;;;9.00;99.90;;;;;;4990978;28;20077;-72
2023/04/25 05:53:30;;;;;;;3.33;1.80;;;8.90;99.90;;;;;;4992224;28;20113;-72
2023/04/25 05:55:56;;;;;;;4.22;2.30;;;9.00;99.90;;;;;;4992484;28;20084;-72
2023/04/25 05:58:25;;;;;;;5.20;2.30;;;9.00;99.90;;;;;;4998123;28;20474;-70
2023/04/25 06:00:51;;;;;;;3.70;1.90;;;9.00;99.90;;;;;;4981868;28;20450;-71
2023/04/25 06:03:17;;;;;;;2.75;1.70;;;9.10;99.90;;;;;;4972725;28;20023;-71
2023/04/25 06:05:43;;;;;;;4.93;1.73;;;9.10;99.90;;;;;;4982342;28;20034;-72
2023/04/25 06:08:09;;;;;;;4.35;1.80;;;9.10;99.90;;;;;;4991966;28;20392;-72
2023/04/25 06:10:36;;;;;;;5.25;2.42;;;9.20;99.90;;;;;;4991885;28;20556;-71
2023/04/25 06:13:02;;;;;;;3.55;1.80;;;9.20;99.90;;;;;;4991864;28;20262;-72
2023/04/25 06:15:32;;;;;;;9.63;2.40;;;9.30;99.90;;;;;;4991845;28;20054;-72
2023/04/25 06:17:57;;;;;;;5.47;2.50;;;9.30;99.90;;;;;;4991867;28;20034;-72
2023/04/25 06:20:24;;;;;;;5.85;2.08;;;9.20;99.90;;;;;;4991555;28;20030;-71
2023/04/25 06:22:52;;;;;;;3.95;2.10;;;9.30;99.90;;;;;;5006885;28;20395;-71
2023/04/25 06:25:18;;;;;;;9.32;2.10;;;9.20;99.90;;;;;;4992042;28;20022;-71
2023/04/25 06:27:44;;;;;;;5.30;2.50;;;9.20;99.90;;;;;;4990058;28;20097;-71
2023/04/25 06:30:13;;;;;;;7.03;2.30;;;9.30;99.90;;;;;;4991057;28;20033;-71
2023/04/25 06:32:42;;;;;;;3.85;2.05;;;9.30;99.90;;;;;;4991633;28;20089;-70
2023/04/25 06:35:08;;;;;;;4.85;2.20;;;9.30;99.90;;;;;;4990280;28;20476;-70
2023/04/25 06:37:33;;;;;;;2.85;2.13;;;9.30;99.90;;;;;;4990083;28;20027;-71
2023/04/25 06:40:02;;;;;;;2.65;1.90;;;9.30;99.90;;;;;;4990923;28;20380;-72
2023/04/25 06:42:28;;;;;;;5.55;2.00;;;9.20;99.90;;;;;;4985300;28;20030;-73
2023/04/25 06:44:56;;;;;;;6.10;1.92;;;9.20;99.90;;;;;;4992771;28;20026;-74
2023/04/25 06:47:22;;;;;;;3.55;1.70;;;9.20;99.90;;;;;;4991203;28;20109;-74
2023/04/25 06:49:48;;;;;;;2.35;1.52;;;9.20;99.90;;;;;;4997765;28;20106;-76
2023/04/25 06:52:13;;;;;;;5.43;1.85;;;9.20;99.90;;;;;;4990063;28;20084;-75
2023/04/25 06:54:39;;;;;;;3.90;1.50;;;9.20;99.90;;;;;;4990172;28;20081;-73
2023/04/25 06:57:04;;;;;;;3.63;1.55;;;9.20;99.90;;;;;;4990779;28;20030;-75
2023/04/25 06:59:30;;;;;;;3.38;1.52;;;9.20;99.90;;;;;;4988242;28;20077;-74
2023/04/25 07:01:56;;;;;;;2.42;1.60;;;9.20;99.90;;;;;;4990101;28;20058;-75
2023/04/25 07:04:24;;;;;;;3.50;1.50;;;9.20;99.90;;;;;;4997062;28;20077;-73
2023/04/25 07:06:56;;;;;;;5.13;1.63;;;9.10;99.90;;;;;;4990905;28;20290;-75
2023/04/25 07:09:22;;;;;;;4.50;2.33;;;9.20;99.90;;;;;;4988491;28;20066;-75
2023/04/25 07:11:48;;;;;;;3.15;1.42;;;9.20;99.90;;;;;;4992877;28;20061;-76
2023/04/25 07:14:16;;;;;;;2.65;1.58;;;9.10;99.90;;;;;;4986376;28;20452;-75
2023/04/25 07:16:48;;;;;;;10.35;2.05;;;9.10;99.90;;;;;;4989813;28;20038;-74
2023/04/25 07:19:20;;;;;;;10.60;2.28;;;9.10;99.90;;;;;;4991088;28;20026;-72
2023/04/25 07:21:52;;;;;;;4.03;1.83;;;9.10;99.90;;;;;;4989751;28;20460;-72
2023/04/25 07:24:17;;;;;;;4.60;1.65;;;9.10;99.90;;;;;;4989806;28;20022;-72
2023/04/25 07:26:46;;;;;;;7.68;1.60;;;9.00;99.90;;;;;;4991168;28;20109;-72
2023/04/25 07:29:12;;;;;;;7.70;1.60;;;9.00;99.90;;;;;;4990903;28;20026;-72
2023/04/25 07:31:38;;;;;;;3.03;1.73;;;8.90;99.90;;;;;;4991271;28;20077;-71
2023/04/25 07:34:03;;;;;;;5.22;2.38;;;8.90;99.90;;;;;;4955662;28;20042;-72
2023/04/25 07:36:30;;;;;;;3.92;2.00;;;8.90;99.90;;;;;;5004126;28;20015;-72
2023/04/25 07:38:56;;;;;;;4.68;2.38;;;8.80;99.90;;;;;;4991046;28;20102;-72
2023/04/25 07:41:22;;;;;;;3.13;1.85;;;8.80;99.90;;;;;;4994181;28;20226;-72
2023/04/25 07:43:47;;;;;;;4.05;2.10;;;8.80;99.90;;;;;;5009569;28;20384;-72
2023/04/25 07:46:16;;;;;;;8.05;2.75;;;8.80;99.90;;;;;;4994788;28;20541;-72
2023/04/25 07:48:41;;;;;;;3.63;2.03;;;8.80;99.90;;;;;;4994447;28;20026;-72
2023/04/25 07:51:07;;;;;;;4.20;1.67;;;8.70;99.90;;;;;;4994482;28;20025;-72
2023/04/25 07:53:34;;;;;;;2.88;1.50;;;8.70;99.90;;;;;;5009518;28;20108;-72
2023/04/25 07:56:00;;;;;;;3.75;1.80;;;8.70;99.90;;;;;;4986152;28;20080;-77
2023/04/25 07:58:26;;;;;;;2.95;1.90;;;8.80;99.90;;;;;;4986210;28;20502;-76
2023/04/25 08:00:51;;;;;;;3.88;2.10;;;8.80;99.90;;;;;;4983571;28;20042;-77
2023/04/25 08:03:17;;;;;;;5.05;2.28;;;8.80;99.90;;;;;;4987098;28;20034;-76
2023/04/25 08:05:43;;;;;;;5.75;2.42;;;8.80;99.90;;;;;;4982468;28;20026;-76
2023/04/25 08:08:11;;;;;;;6.53;2.72;;;8.90;99.90;;;;;;4988054;28;20200;-77
2023/04/25 08:10:37;;;;;;;5.40;2.20;;;8.90;99.90;;;;;;4984973;28;20027;-76
2023/04/25 08:13:02;;;;;;;5.47;2.63;;;9.00;99.90;;;;;;4987910;28;20500;-76
2023/04/25 08:15:31;;;;;;;3.97;2.60;;;9.00;99.90;;;;;;4987641;28;20443;-75
2023/04/25 08:17:57;;;;;;;5.00;2.50;;;9.00;99.90;;;;;;4987106;28;20053;-77
2023/04/25 08:20:26;;;;;;;3.70;2.42;;;9.00;99.90;;;;;;4980933;28;20247;-76
2023/04/25 08:22:54;;;;;;;5.93;2.38;;;9.00;99.90;;;;;;4983329;28;20033;-75
2023/04/25 08:25:23;;;;;;;8.73;3.13;;;9.00;99.90;;;;;;4982466;28;20479;-76
2023/04/25 08:27:48;;;;;;;6.35;2.47;;;9.00;99.90;;;;;;4979822;28;20391;-75
2023/04/25 08:30:14;;;;;;;5.05;3.08;;;9.00;99.90;;;;;;4977824;28;20034;-76
2023/04/25 08:32:40;;;;;;;4.85;2.20;;;9.00;99.90;;;;;;4979261;28;20062;-75
2023/04/25 08:35:06;;;;;;;5.53;2.72;;;9.00;99.90;;;;;;4979049;28;20643;-75
2023/04/25 08:37:32;;;;;;;5.63;2.60;;;8.90;99.90;;;;;;4982979;28;20042;-75
2023/04/25 08:39:58;;;;;;;3.35;2.03;;;8.90;99.90;;;;;;4981102;28;20104;-75
2023/04/25 08:42:24;;;;;;;3.28;2.33;;;8.90;99.90;;;;;;4983173;28;20387;-75
2023/04/25 08:44:50;;;;;;;5.28;2.70;;;8.80;99.90;;;;;;4982849;28;20030;-75
2023/04/25 08:47:18;;;;;;;4.65;1.98;;;8.70;99.90;;;;;;4980452;28;20057;-76
2023/04/25 08:49:46;;;;;;;4.95;2.13;;;8.70;99.90;;;;;;4973851;28;20116;-75
2023/04/25 08:52:13;;;;;;;5.78;2.28;;;8.60;99.90;;;;;;4980161;28;20508;-75
2023/04/25 08:54:48;;;;;;;3.15;2.05;;;8.50;99.90;;;;;;4978552;28;20092;-76
2023/04/25 08:57:15;;;;;;;4.20;2.80;;;8.50;99.90;;;;;;4986315;28;20088;-75
2023/04/25 08:59:46;;;;;;;7.43;2.60;;;8.40;99.90;;;;;;4983476;28;20041;-76
2023/04/25 09:02:16;;;;;;;3.55;2.35;;;8.30;99.90;;;;;;4975872;28;20026;-75
2023/04/25 09:04:54;;;;;;;4.47;2.70;;;8.10;99.90;;;;;;4979882;28;20113;-76
2023/04/25 09:07:21;;;;;;;4.32;2.75;;;7.90;99.90;;;;;;5001055;28;20030;-76
2023/04/25 09:09:47;;;;;;;4.03;2.67;;;7.90;99.90;;;;;;4994821;28;20492;-76
2023/04/25 09:12:13;;;;;;;3.88;2.53;;;7.80;99.90;;;;;;5002363;28;20026;-76
2023/04/25 09:15:00;;;;;;;5.28;3.42;;;7.80;99.90;;;;;;4980785;28;20502;-75
2023/04/25 09:17:29;;;;;;;5.38;3.55;;;7.70;99.90;;;;;;4983941;28;20041;-75
2023/04/25 09:19:55;;;;;;;8.38;4.63;;;7.70;99.90;;;;;;4983989;28;20966;-75
2023/04/25 09:22:22;;;;;;;6.82;3.10;;;7.70;99.90;;;;;;4983719;28;20113;-75
2023/04/25 09:24:50;;;;;;;4.40;2.83;;;7.60;99.90;;;;;;4983133;28;20030;-75
2023/04/25 09:27:26;;;;;;;5.50;2.90;;;7.60;99.90;;;;;;4983601;28;20447;-75
2023/04/25 09:29:59;;;;;;;4.47;2.35;;;7.70;99.90;;;;;;4994497;28;20042;-75
2023/04/25 09:32:25;;;;;;;4.68;2.60;;;7.60;99.90;;;;;;4979949;28;20137;-75
2023/04/25 09:34:56;;;;;;;7.50;3.05;;;7.50;99.90;;;;;;4983252;28;20060;-75
2023/04/25 09:37:24;;;;;;;6.03;3.00;;;7.60;99.90;;;;;;4982867;28;20022;-76
2023/04/25 09:39:52;;;;;;;6.00;3.10;;;7.60;99.90;;;;;;4984337;28;20022;-75
2023/04/25 09:42:21;;;;;;;4.47;1.77;;;7.60;99.90;;;;;;4984541;28;20590;-76
2023/04/25 09:44:47;;;;;;;6.15;1.52;;;7.60;99.90;;;;;;4986992;28;20403;-76
2023/04/25 09:47:17;;;;;;;4.70;1.48;;;7.50;99.90;;;;;;4986674;28;20026;-76
2023/04/25 09:49:43;;;;;;;3.08;1.23;;;7.50;99.90;;;;;;4996696;28;20442;-76
2023/04/25 09:52:19;;;;;;;4.80;1.38;;;7.50;99.90;;;;;;4984816;28;20096;-76
2023/04/25 09:54:47;;;;;;;1.85;0.80;;;7.50;99.90;;;;;;4983852;28;20125;-76
2023/04/25 09:57:15;;;;;;;1.90;0.82;;;7.50;99.90;;;;;;4984146;28;20031;-76
2023/04/25 09:59:48;;;;;;;2.00;0.95;;;7.50;99.90;;;;;;4983010;28;20034;-76
2023/04/25 10:02:17;;;;;;;3.30;1.45;;;7.50;99.90;;;;;;4985066;28;20439;-76
2023/04/25 10:04:47;;;;;;;10.90;1.40;;;7.60;99.90;;;;;;4983336;28;20034;-76
2023/04/25 10:07:13;;;;;;;5.38;1.10;;;7.60;99.90;;;;;;4980278;28;20034;-75
2023/04/25 10:09:40;;;;;;;2.30;1.05;;;7.60;99.90;;;;;;4983096;28;20048;-75
2023/04/25 10:12:09;;;;;;;2.50;0.68;;;7.60;99.90;;;;;;4995156;28;20365;-75
2023/04/25 10:14:35;;;;;;;3.17;0.90;;;7.50;99.90;;;;;;4997512;28;20030;-75
2023/04/25 10:17:04;;;;;;;2.88;1.02;;;7.40;99.90;;;;;;4979266;28;20480;-75
2023/04/25 10:19:33;;;;;;;1.50;0.80;;;7.40;99.90;;;;;;4977562;28;20033;-76
2023/04/25 10:22:14;;;;;;;1.15;0.77;;;7.50;99.90;;;;;;4982286;28;20396;-75
2023/04/25 10:24:41;;;;;;;1.35;0.90;;;7.40;99.90;;;;;;4981760;28;20181;-76
2023/04/25 10:27:07;;;;;;;4.75;1.60;;;7.40;99.90;;;;;;4989738;28;20094;-75
2023/04/25 10:29:35;;;;;;;2.92;1.77;;;7.40;99.90;;;;;;4985345;28;20088;-75
2023/04/25 10:32:00;;;;;;;3.85;2.00;;;7.30;99.90;;;;;;4987494;28;20093;-75
2023/04/25 10:34:42;;;;;;;3.35;2.03;;;7.20;99.90;;;;;;4976674;28;20114;-75
2023/04/25 10:37:13;;;;;;;3.30;1.38;;;7.20;99.90;;;;;;4980304;28;20129;-76
2023/04/25 10:39:41;;;;;;;1.70;1.17;;;7.10;99.90;;;;;;4975269;28;20095;-75
2023/04/25 10:42:07;;;;;;;2.38;1.50;;;7.00;99.90;;;;;;4980075;28;20026;-76
2023/04/25 10:44:34;;;;;;;1.48;0.90;;;7.00;99.90;;;;;;4976753;28;20035;-76
2023/04/25 10:47:05;;;;;;;2.03;1.08;;;6.90;99.90;;;;;;4979848;28;20357;-76
2023/04/25 10:49:34;;;;;;;1.65;0.80;;;6.80;99.90;;;;;;4988012;23;20026;-73
2023/04/25 10:52:29;;;;;;;1.75;1.10;;;6.80;99.90;;;;;;4988238;28;20040;-75
2023/04/25 10:54:56;;;;;;;2.47;1.08;;;6.80;99.90;;;;;;4993097;28;20513;-79
2023/04/25 10:57:39;;;;;;;2.53;1.15;;;6.90;99.90;;;;;;4994635;28;20027;-76
2023/04/25 11:00:11;;;;;;;2.05;1.00;;;6.90;99.90;;;;;;4995435;28;20165;-78
2023/04/25 11:02:58;;;;;;;1.63;0.93;;;7.00;99.90;;;;;;4993889;28;20086;-77
2023/04/25 11:05:35;;;;;;;1.55;0.60;;;7.00;99.90;;;;;;4988517;28;20080;-75
2023/04/25 11:08:03;;;;;;;2.08;0.63;;;7.00;99.90;;;;;;4993799;28;20022;-77
2023/04/25 11:10:30;;;;;;;1.35;0.68;;;7.00;99.90;;;;;;4991173;28;20029;-76
2023/04/25 11:12:56;;;;;;;1.38;0.80;;;7.10;99.90;;;;;;4991933;28;20066;-77
2023/04/25 11:15:22;;;;;;;1.52;0.88;;;7.20;99.90;;;;;;4993401;28;20562;-77
2023/04/25 11:17:48;;;;;;;1.60;1.02;;;7.30;99.90;;;;;;4995842;28;20446;-77
2023/04/25 11:20:15;;;;;;;1.30;0.75;;;7.30;99.90;;;;;;4992853;28;20113;-77
2023/04/25 11:22:41;;;;;;;2.03;0.73;;;7.40;99.90;;;;;;4992595;28;20031;-76
2023/04/25 11:25:08;;;;;;;1.15;0.68;;;7.40;99.90;;;;;;4995409;28;20036;-77
2023/04/25 11:27:37;;;;;;;3.33;0.63;;;7.40;99.90;;;;;;4993400;28;20102;-77
2023/04/25 11:30:15;;;;;;;1.13;0.63;;;7.50;99.90;;;;;;4989899;28;20034;-77
2023/04/25 11:32:42;;;;;;;1.17;0.30;;;7.50;99.90;;;;;;4994698;28;20045;-78
2023/04/25 11:35:09;;;;;;;0.95;0.40;;;7.50;99.90;;;;;;4999750;28;20098;-77
2023/04/25 11:37:35;;;;;;;5.93;0.70;;;7.50;99.90;;;;;;5001851;28;20030;-76
2023/04/25 11:40:02;;;;;;;2.22;1.20;;;7.50;99.90;;;;;;4997567;28;20041;-77
2023/04/25 11:42:28;;;;;;;1.05;0.45;;;7.60;99.90;;;;;;4993575;28;20073;-78
2023/04/25 11:44:53;;;;;;;2.80;0.50;;;7.60;99.90;;;;;;5005631;28;20022;-75
2023/04/25 11:47:19;;;;;;;3.97;0.93;;;7.60;99.90;;;;;;4989130;28;20076;-77
2023/04/25 11:49:45;;;;;;;1.52;0.73;;;7.70;99.90;;;;;;4994265;28;20394;-77
2023/04/25 11:52:10;;;;;;;2.67;0.80;;;7.70;99.90;;;;;;4993567;28;20026;-77
2023/04/25 11:54:37;;;;;;;5.97;1.45;;;7.70;99.90;;;;;;4996314;28;20034;-77
2023/04/25 11:57:03;;;;;;;2.60;0.80;;;7.70;99.90;;;;;;4997927;28;20038;-78
2023/04/25 11:59:29;;;;;;;1.40;0.57;;;7.70;99.90;;;;;;4989255;28;20137;-79
2023/04/25 12:01:57;;;;;;;2.22;0.70;;;7.70;99.90;;;;;;4995724;28;20031;-79
2023/04/25 12:04:24;;;;;;;2.63;0.88;;;7.70;99.90;;;;;;4994836;28;20030;-79
2023/04/25 12:06:52;;;;;;;2.13;1.00;;;7.70;99.90;;;;;;5006610;28;20045;-79
2023/04/25 12:09:21;;;;;;;3.33;0.98;;;7.70;99.90;;;;;;4996706;28;20029;-79
2023/04/25 12:11:53;;;;;;;1.40;0.80;;;7.80;99.90;;;;;;4985133;28;20034;-78
2023/04/25 12:14:24;;;;;;;0.82;0.40;;;7.90;99.90;;;;;;4996385;28;20142;-78
2023/04/25 12:16:51;;;;;;;1.45;0.57;;;8.00;99.90;;;;;;4992072;28;20027;-79
2023/04/25 12:19:18;;;;;;;1.38;0.60;;;8.10;99.90;;;;;;5006035;28;20034;-76
2023/04/25 12:21:44;;;;;;;0.40;0.40;;;8.20;99.90;;;;;;4990622;28;20031;-77
2023/04/25 12:24:16;;;;;;;2.17;0.73;;;8.20;99.90;;;;;;5003570;28;20117;-76
2023/04/25 12:26:59;;;;;;;0.45;0.40;;;8.30;99.90;;;;;;4991924;28;20027;-81
2023/04/25 12:29:27;;;;;;;0.60;0.40;;;8.40;99.90;;;;;;5004219;28;20022;-79
2023/04/25 12:31:54;;;;;;;1.27;0.43;;;8.40;99.90;;;;;;5003077;28;20248;-79
2023/04/25 12:34:21;;;;;;;0.75;0.40;;;8.40;99.90;;;;;;4998520;28;20037;-78
2023/04/25 12:36:48;;;;;;;0.82;0.40;;;8.40;99.90;;;;;;5001136;28;20227;-78
2023/04/25 12:39:21;;;;;;;0.98;0.50;;;8.40;99.90;;;;;;4998152;28;20042;-78
2023/04/25 12:41:47;;;;;;;1.15;0.47;;;8.50;99.90;;;;;;5001660;28;20073;-79
2023/04/25 12:44:13;;;;;;;1.65;0.70;;;8.40;99.90;;;;;;5003379;28;20053;-79
2023/04/25 12:46:40;;;;;;;7.88;2.10;;;8.40;99.90;;;;;;5005085;28;20062;-79
2023/04/25 12:49:08;;;;;;;7.28;1.23;;;8.40;99.90;;;;;;4994806;28;20027;-78
2023/04/25 12:51:34;;;;;;;2.90;0.80;;;8.50;99.90;;;;;;4997414;28;20042;-79
2023/04/25 12:54:00;;;;;;;0.60;0.40;;;8.50;99.90;;;;;;4991397;28;20483;-77
2023/04/25 12:56:27;;;;;;;1.13;0.43;;;8.60;99.90;;;;;;4987587;28;20113;-77
2023/04/25 12:58:53;;;;;;;2.55;0.60;;;8.60;99.90;;;;;;4988870;28;20034;-77
2023/04/25 13:01:22;;;;;;;0.85;0.50;;;8.70;99.90;;;;;;4986072;28;20097;-77